sensor_id;sensor_type;location;lat;lon;timestamp;P1;durP1;ratioP1;P2;durP2;ratioP2
10458;SDS011;5277;48.722;8.736;2024-02-23T00:01:07;5.43;;;0.30;;
10458;SDS011;5277;48.722;8.736;2024-02-23T00:03:33;3.43;;;0.30;;
10458;SDS011;5277;48.722;8.736;2024-02-23T00:06:01;3.42;;;0.47;;
10458;SDS011;5277;48.722;8.736;2024-02-23T00:08:26;1.75;;;0.50;;
10458;SDS011;5277;48.722;8.736;2024-02-23T00:10:52;2.03;;;0.40;;
10458;SDS011;5277;48.722;8.736;2024-02-23T00:13:17;2.73;;;0.70;;
10458;SDS011;5277;48.722;8.736;2024-02-23T00:15:43;5.77;;;0.80;;
10458;SDS011;5277;48.722;8.736;2024-02-23T00:18:09;3.50;;;0.30;;
10458;SDS011;5277;48.722;8.736;2024-02-23T00:20:34;3.03;;;0.60;;
10458;SDS011;5277;48.722;8.736;2024-02-23T00:23:01;1.50;;;0.60;;
10458;SDS011;5277;48.722;8.736;2024-02-23T00:25:27;2.47;;;0.70;;
10458;SDS011;5277;48.722;8.736;2024-02-23T00:27:53;2.27;;;0.80;;
10458;SDS011;5277;48.722;8.736;2024-02-23T00:30:18;3.22;;;0.82;;
10458;SDS011;5277;48.722;8.736;2024-02-23T00:32:44;5.20;;;1.07;;
10458;SDS011;5277;48.722;8.736;2024-02-23T00:35:09;2.43;;;0.50;;
10458;SDS011;5277;48.722;8.736;2024-02-23T00:37:35;5.53;;;0.40;;
10458;SDS011;5277;48.722;8.736;2024-02-23T00:40:04;2.10;;;0.70;;
10458;SDS011;5277;48.722;8.736;2024-02-23T00:42:30;1.07;;;0.57;;
10458;SDS011;5277;48.722;8.736;2024-02-23T00:44:56;4.53;;;1.30;;
10458;SDS011;5277;48.722;8.736;2024-02-23T00:47:21;4.33;;;0.70;;
10458;SDS011;5277;48.722;8.736;2024-02-23T00:49:47;3.20;;;0.50;;
10458;SDS011;5277;48.722;8.736;2024-02-23T00:52:13;1.10;;;0.40;;
10458;SDS011;5277;48.722;8.736;2024-02-23T00:54:39;4.73;;;0.77;;
10458;SDS011;5277;48.722;8.736;2024-02-23T00:57:04;0.57;;;0.50;;
10458;SDS011;5277;48.722;8.736;2024-02-23T00:59:30;9.10;;;0.73;;
10458;SDS011;5277;48.722;8.736;2024-02-23T01:01:55;3.27;;;0.90;;
10458;SDS011;5277;48.722;8.736;2024-02-23T01:04:21;5.97;;;0.90;;
10458;SDS011;5277;48.722;8.736;2024-02-23T01:06:46;1.93;;;0.50;;
10458;SDS011;5277;48.722;8.736;2024-02-23T01:09:12;0.87;;;0.50;;
10458;SDS011;5277;48.722;8.736;2024-02-23T01:11:38;6.63;;;0.80;;
10458;SDS011;5277;48.722;8.736;2024-02-23T01:14:03;6.03;;;0.80;;
10458;SDS011;5277;48.722;8.736;2024-02-23T01:16:31;7.80;;;0.80;;
10458;SDS011;5277;48.722;8.736;2024-02-23T01:18:57;6.73;;;0.73;;
10458;SDS011;5277;48.722;8.736;2024-02-23T01:21:23;3.80;;;0.93;;
10458;SDS011;5277;48.722;8.736;2024-02-23T01:23:49;6.27;;;0.80;;
10458;SDS011;5277;48.722;8.736;2024-02-23T01:26:14;2.53;;;1.00;;
10458;SDS011;5277;48.722;8.736;2024-02-23T01:28:40;0.70;;;0.50;;
10458;SDS011;5277;48.722;8.736;2024-02-23T01:31:08;7.80;;;0.80;;
10458;SDS011;5277;48.722;8.736;2024-02-23T01:33:35;4.17;;;0.83;;
10458;SDS011;5277;48.722;8.736;2024-02-23T01:36:03;6.43;;;0.65;;
10458;SDS011;5277;48.722;8.736;2024-02-23T01:38:29;5.47;;;0.90;;
10458;SDS011;5277;48.722;8.736;2024-02-23T01:40:57;2.63;;;0.67;;
10458;SDS011;5277;48.722;8.736;2024-02-23T01:43:23;2.80;;;0.60;;
10458;SDS011;5277;48.722;8.736;2024-02-23T01:45:49;1.27;;;0.70;;
10458;SDS011;5277;48.722;8.736;2024-02-23T01:48:15;1.13;;;0.60;;
10458;SDS011;5277;48.722;8.736;2024-02-23T01:50:41;4.20;;;0.50;;
10458;SDS011;5277;48.722;8.736;2024-02-23T01:53:08;1.85;;;0.70;;
10458;SDS011;5277;48.722;8.736;2024-02-23T01:55:35;1.87;;;0.70;;
10458;SDS011;5277;48.722;8.736;2024-02-23T01:58:02;3.90;;;0.60;;
10458;SDS011;5277;48.722;8.736;2024-02-23T02:00:29;2.42;;;0.50;;
10458;SDS011;5277;48.722;8.736;2024-02-23T02:02:56;3.57;;;0.50;;
10458;SDS011;5277;48.722;8.736;2024-02-23T02:05:22;3.90;;;0.70;;
10458;SDS011;5277;48.722;8.736;2024-02-23T02:07:49;2.77;;;0.60;;
10458;SDS011;5277;48.722;8.736;2024-02-23T02:10:18;2.10;;;0.70;;
10458;SDS011;5277;48.722;8.736;2024-02-23T02:12:45;5.40;;;0.60;;
10458;SDS011;5277;48.722;8.736;2024-02-23T02:15:11;3.73;;;0.80;;
10458;SDS011;5277;48.722;8.736;2024-02-23T02:17:37;7.10;;;0.83;;
10458;SDS011;5277;48.722;8.736;2024-02-23T02:20:02;2.67;;;0.53;;
10458;SDS011;5277;48.722;8.736;2024-02-23T02:22:32;0.77;;;0.50;;
10458;SDS011;5277;48.722;8.736;2024-02-23T02:24:58;1.57;;;0.47;;
10458;SDS011;5277;48.722;8.736;2024-02-23T02:27:24;4.47;;;0.80;;
10458;SDS011;5277;48.722;8.736;2024-02-23T02:29:50;2.20;;;0.63;;
10458;SDS011;5277;48.722;8.736;2024-02-23T02:32:16;5.43;;;0.90;;
10458;SDS011;5277;48.722;8.736;2024-02-23T02:34:41;0.83;;;0.40;;
10458;SDS011;5277;48.722;8.736;2024-02-23T02:37:07;2.80;;;0.60;;
10458;SDS011;5277;48.722;8.736;2024-02-23T02:39:33;1.97;;;0.50;;
10458;SDS011;5277;48.722;8.736;2024-02-23T02:41:59;2.27;;;0.60;;
10458;SDS011;5277;48.722;8.736;2024-02-23T02:44:24;0.87;;;0.50;;
10458;SDS011;5277;48.722;8.736;2024-02-23T02:46:51;3.37;;;0.60;;
10458;SDS011;5277;48.722;8.736;2024-02-23T02:49:17;1.00;;;0.53;;
10458;SDS011;5277;48.722;8.736;2024-02-23T02:51:42;0.80;;;0.40;;
10458;SDS011;5277;48.722;8.736;2024-02-23T02:54:10;1.80;;;0.70;;
10458;SDS011;5277;48.722;8.736;2024-02-23T02:56:35;3.03;;;0.80;;
10458;SDS011;5277;48.722;8.736;2024-02-23T02:59:01;1.60;;;0.53;;
10458;SDS011;5277;48.722;8.736;2024-02-23T03:01:26;4.00;;;1.03;;
10458;SDS011;5277;48.722;8.736;2024-02-23T03:03:52;4.80;;;0.80;;
10458;SDS011;5277;48.722;8.736;2024-02-23T03:06:17;3.60;;;0.50;;
10458;SDS011;5277;48.722;8.736;2024-02-23T03:08:43;3.03;;;0.63;;
10458;SDS011;5277;48.722;8.736;2024-02-23T03:11:09;1.43;;;0.43;;
10458;SDS011;5277;48.722;8.736;2024-02-23T03:13:34;2.93;;;0.70;;
10458;SDS011;5277;48.722;8.736;2024-02-23T03:16:00;0.97;;;0.40;;
10458;SDS011;5277;48.722;8.736;2024-02-23T03:18:25;1.67;;;0.60;;
10458;SDS011;5277;48.722;8.736;2024-02-23T03:20:52;5.37;;;0.80;;
10458;SDS011;5277;48.722;8.736;2024-02-23T03:23:18;2.20;;;0.57;;
10458;SDS011;5277;48.722;8.736;2024-02-23T03:25:44;1.10;;;0.50;;
10458;SDS011;5277;48.722;8.736;2024-02-23T03:28:09;4.17;;;0.80;;
10458;SDS011;5277;48.722;8.736;2024-02-23T03:30:35;3.67;;;0.77;;
10458;SDS011;5277;48.722;8.736;2024-02-23T03:33:00;2.23;;;0.53;;
10458;SDS011;5277;48.722;8.736;2024-02-23T03:35:26;2.83;;;0.70;;
10458;SDS011;5277;48.722;8.736;2024-02-23T03:37:52;0.90;;;0.50;;
10458;SDS011;5277;48.722;8.736;2024-02-23T03:40:17;3.60;;;0.93;;
10458;SDS011;5277;48.722;8.736;2024-02-23T03:42:45;5.07;;;0.77;;
10458;SDS011;5277;48.722;8.736;2024-02-23T03:45:11;3.53;;;0.67;;
10458;SDS011;5277;48.722;8.736;2024-02-23T03:47:36;5.10;;;0.83;;
10458;SDS011;5277;48.722;8.736;2024-02-23T03:50:03;1.93;;;0.60;;
10458;SDS011;5277;48.722;8.736;2024-02-23T03:52:29;1.87;;;0.53;;
10458;SDS011;5277;48.722;8.736;2024-02-23T03:54:55;1.83;;;0.70;;
10458;SDS011;5277;48.722;8.736;2024-02-23T03:57:20;1.40;;;0.33;;
10458;SDS011;5277;48.722;8.736;2024-02-23T03:59:53;5.23;;;0.70;;
10458;SDS011;5277;48.722;8.736;2024-02-23T04:02:19;3.47;;;0.70;;
10458;SDS011;5277;48.722;8.736;2024-02-23T04:04:44;2.37;;;0.50;;
10458;SDS011;5277;48.722;8.736;2024-02-23T04:07:10;0.83;;;0.50;;
10458;SDS011;5277;48.722;8.736;2024-02-23T04:09:36;1.70;;;0.60;;
10458;SDS011;5277;48.722;8.736;2024-02-23T04:12:01;4.97;;;0.80;;
10458;SDS011;5277;48.722;8.736;2024-02-23T04:14:27;7.10;;;0.67;;
10458;SDS011;5277;48.722;8.736;2024-02-23T04:16:52;4.27;;;0.77;;
10458;SDS011;5277;48.722;8.736;2024-02-23T04:19:18;2.10;;;0.70;;
10458;SDS011;5277;48.722;8.736;2024-02-23T04:21:44;4.80;;;0.70;;
10458;SDS011;5277;48.722;8.736;2024-02-23T04:24:09;1.07;;;0.60;;
10458;SDS011;5277;48.722;8.736;2024-02-23T04:26:35;1.20;;;0.50;;
10458;SDS011;5277;48.722;8.736;2024-02-23T04:29:01;3.00;;;0.87;;
10458;SDS011;5277;48.722;8.736;2024-02-23T04:31:26;1.67;;;0.60;;
10458;SDS011;5277;48.722;8.736;2024-02-23T04:33:52;2.53;;;0.67;;
10458;SDS011;5277;48.722;8.736;2024-02-23T04:36:20;2.50;;;0.60;;
10458;SDS011;5277;48.722;8.736;2024-02-23T04:38:46;1.57;;;0.80;;
10458;SDS011;5277;48.722;8.736;2024-02-23T04:41:11;4.20;;;0.90;;
10458;SDS011;5277;48.722;8.736;2024-02-23T04:43:37;5.23;;;0.87;;
10458;SDS011;5277;48.722;8.736;2024-02-23T04:46:02;1.70;;;0.50;;
10458;SDS011;5277;48.722;8.736;2024-02-23T04:48:28;1.93;;;0.80;;
10458;SDS011;5277;48.722;8.736;2024-02-23T04:50:56;1.20;;;0.63;;
10458;SDS011;5277;48.722;8.736;2024-02-23T04:53:22;5.27;;;0.80;;
10458;SDS011;5277;48.722;8.736;2024-02-23T04:55:47;2.03;;;0.90;;
10458;SDS011;5277;48.722;8.736;2024-02-23T04:58:13;2.97;;;1.20;;
10458;SDS011;5277;48.722;8.736;2024-02-23T05:00:39;4.87;;;0.67;;
10458;SDS011;5277;48.722;8.736;2024-02-23T05:03:05;3.70;;;0.90;;
10458;SDS011;5277;48.722;8.736;2024-02-23T05:05:31;5.87;;;0.60;;
10458;SDS011;5277;48.722;8.736;2024-02-23T05:07:57;2.93;;;0.90;;
10458;SDS011;5277;48.722;8.736;2024-02-23T05:10:23;2.27;;;0.87;;
10458;SDS011;5277;48.722;8.736;2024-02-23T05:12:49;2.63;;;0.90;;
10458;SDS011;5277;48.722;8.736;2024-02-23T05:15:14;1.50;;;0.70;;
10458;SDS011;5277;48.722;8.736;2024-02-23T05:17:40;2.70;;;0.80;;
10458;SDS011;5277;48.722;8.736;2024-02-23T05:20:06;1.47;;;0.97;;
10458;SDS011;5277;48.722;8.736;2024-02-23T05:22:35;5.13;;;1.10;;
10458;SDS011;5277;48.722;8.736;2024-02-23T05:25:04;1.97;;;1.03;;
10458;SDS011;5277;48.722;8.736;2024-02-23T05:27:30;3.83;;;1.20;;
10458;SDS011;5277;48.722;8.736;2024-02-23T05:29:56;1.80;;;0.80;;
10458;SDS011;5277;48.722;8.736;2024-02-23T05:32:21;3.10;;;0.97;;
10458;SDS011;5277;48.722;8.736;2024-02-23T05:34:48;1.93;;;0.80;;
10458;SDS011;5277;48.722;8.736;2024-02-23T05:37:16;0.60;;;0.60;;
10458;SDS011;5277;48.722;8.736;2024-02-23T05:39:42;7.80;;;0.70;;
10458;SDS011;5277;48.722;8.736;2024-02-23T05:42:09;2.20;;;0.70;;
10458;SDS011;5277;48.722;8.736;2024-02-23T05:44:35;1.93;;;0.70;;
10458;SDS011;5277;48.722;8.736;2024-02-23T05:47:01;1.43;;;0.80;;
10458;SDS011;5277;48.722;8.736;2024-02-23T05:49:26;1.90;;;0.93;;
10458;SDS011;5277;48.722;8.736;2024-02-23T05:51:52;3.10;;;1.07;;
10458;SDS011;5277;48.722;8.736;2024-02-23T05:54:18;1.77;;;0.97;;
10458;SDS011;5277;48.722;8.736;2024-02-23T05:56:44;1.77;;;0.73;;
10458;SDS011;5277;48.722;8.736;2024-02-23T05:59:10;3.07;;;0.93;;
10458;SDS011;5277;48.722;8.736;2024-02-23T06:01:36;4.43;;;0.93;;
10458;SDS011;5277;48.722;8.736;2024-02-23T06:04:02;5.40;;;0.70;;
10458;SDS011;5277;48.722;8.736;2024-02-23T06:06:28;5.53;;;0.80;;
10458;SDS011;5277;48.722;8.736;2024-02-23T06:08:53;2.67;;;0.80;;
10458;SDS011;5277;48.722;8.736;2024-02-23T06:11:19;1.33;;;1.17;;
10458;SDS011;5277;48.722;8.736;2024-02-23T06:13:45;3.83;;;0.90;;
10458;SDS011;5277;48.722;8.736;2024-02-23T06:16:10;2.63;;;0.97;;
10458;SDS011;5277;48.722;8.736;2024-02-23T06:18:36;2.60;;;0.90;;
10458;SDS011;5277;48.722;8.736;2024-02-23T06:21:12;3.83;;;1.07;;
10458;SDS011;5277;48.722;8.736;2024-02-23T06:23:39;1.30;;;0.90;;
10458;SDS011;5277;48.722;8.736;2024-02-23T06:26:05;2.17;;;1.00;;
10458;SDS011;5277;48.722;8.736;2024-02-23T06:28:31;2.20;;;1.10;;
10458;SDS011;5277;48.722;8.736;2024-02-23T06:30:56;3.07;;;0.90;;
10458;SDS011;5277;48.722;8.736;2024-02-23T06:33:22;2.30;;;1.10;;
10458;SDS011;5277;48.722;8.736;2024-02-23T06:35:47;6.73;;;2.70;;
10458;SDS011;5277;48.722;8.736;2024-02-23T06:38:13;4.30;;;1.30;;
10458;SDS011;5277;48.722;8.736;2024-02-23T06:40:38;3.37;;;1.20;;
10458;SDS011;5277;48.722;8.736;2024-02-23T06:43:04;3.87;;;1.10;;
10458;SDS011;5277;48.722;8.736;2024-02-23T06:45:29;7.33;;;0.93;;
10458;SDS011;5277;48.722;8.736;2024-02-23T06:47:55;2.10;;;0.70;;
10458;SDS011;5277;48.722;8.736;2024-02-23T06:50:20;2.93;;;1.20;;
10458;SDS011;5277;48.722;8.736;2024-02-23T06:52:46;12.53;;;3.50;;
10458;SDS011;5277;48.722;8.736;2024-02-23T06:55:14;6.00;;;2.27;;
10458;SDS011;5277;48.722;8.736;2024-02-23T06:57:42;3.17;;;1.00;;
10458;SDS011;5277;48.722;8.736;2024-02-23T07:00:08;4.57;;;1.60;;
10458;SDS011;5277;48.722;8.736;2024-02-23T07:02:33;8.07;;;2.03;;
10458;SDS011;5277;48.722;8.736;2024-02-23T07:05:01;8.70;;;3.80;;
10458;SDS011;5277;48.722;8.736;2024-02-23T07:07:29;7.80;;;4.07;;
10458;SDS011;5277;48.722;8.736;2024-02-23T07:09:55;8.37;;;3.83;;
10458;SDS011;5277;48.722;8.736;2024-02-23T07:12:21;7.17;;;3.47;;
10458;SDS011;5277;48.722;8.736;2024-02-23T07:14:47;6.57;;;2.73;;
10458;SDS011;5277;48.722;8.736;2024-02-23T07:17:16;5.83;;;2.60;;
10458;SDS011;5277;48.722;8.736;2024-02-23T07:19:42;4.00;;;2.40;;
10458;SDS011;5277;48.722;8.736;2024-02-23T07:22:07;3.87;;;2.33;;
10458;SDS011;5277;48.722;8.736;2024-02-23T07:24:33;4.03;;;2.17;;
10458;SDS011;5277;48.722;8.736;2024-02-23T07:26:59;4.10;;;2.00;;
10458;SDS011;5277;48.722;8.736;2024-02-23T07:29:24;4.63;;;2.00;;
10458;SDS011;5277;48.722;8.736;2024-02-23T07:31:50;3.53;;;1.83;;
10458;SDS011;5277;48.722;8.736;2024-02-23T07:34:15;4.93;;;1.60;;
10458;SDS011;5277;48.722;8.736;2024-02-23T07:36:41;4.73;;;1.73;;
10458;SDS011;5277;48.722;8.736;2024-02-23T07:39:08;10.30;;;2.40;;
10458;SDS011;5277;48.722;8.736;2024-02-23T07:41:33;11.63;;;7.03;;
10458;SDS011;5277;48.722;8.736;2024-02-23T07:43:59;7.80;;;4.77;;
10458;SDS011;5277;48.722;8.736;2024-02-23T07:46:24;10.00;;;5.40;;
10458;SDS011;5277;48.722;8.736;2024-02-23T07:48:50;7.93;;;3.53;;
10458;SDS011;5277;48.722;8.736;2024-02-23T07:51:16;3.77;;;2.80;;
10458;SDS011;5277;48.722;8.736;2024-02-23T07:53:41;4.10;;;2.13;;
10458;SDS011;5277;48.722;8.736;2024-02-23T07:56:07;4.20;;;2.30;;
10458;SDS011;5277;48.722;8.736;2024-02-23T07:58:33;4.80;;;1.90;;
10458;SDS011;5277;48.722;8.736;2024-02-23T08:00:58;4.00;;;1.47;;
10458;SDS011;5277;48.722;8.736;2024-02-23T08:03:24;3.50;;;1.40;;
10458;SDS011;5277;48.722;8.736;2024-02-23T08:05:49;3.60;;;1.30;;
10458;SDS011;5277;48.722;8.736;2024-02-23T08:08:15;4.50;;;1.80;;
10458;SDS011;5277;48.722;8.736;2024-02-23T08:10:40;9.73;;;2.03;;
10458;SDS011;5277;48.722;8.736;2024-02-23T08:13:06;2.40;;;1.90;;
10458;SDS011;5277;48.722;8.736;2024-02-23T08:15:33;6.60;;;1.73;;
10458;SDS011;5277;48.722;8.736;2024-02-23T08:18:01;2.40;;;1.40;;
10458;SDS011;5277;48.722;8.736;2024-02-23T08:20:26;4.13;;;2.07;;
10458;SDS011;5277;48.722;8.736;2024-02-23T08:22:52;5.87;;;1.90;;
10458;SDS011;5277;48.722;8.736;2024-02-23T08:25:17;4.50;;;2.07;;
10458;SDS011;5277;48.722;8.736;2024-02-23T08:27:43;6.27;;;2.30;;
10458;SDS011;5277;48.722;8.736;2024-02-23T08:30:09;4.43;;;1.83;;
10458;SDS011;5277;48.722;8.736;2024-02-23T08:32:36;5.47;;;1.70;;
10458;SDS011;5277;48.722;8.736;2024-02-23T08:35:01;3.63;;;1.47;;
10458;SDS011;5277;48.722;8.736;2024-02-23T08:37:27;9.63;;;2.00;;
10458;SDS011;5277;48.722;8.736;2024-02-23T08:39:53;3.40;;;1.60;;
10458;SDS011;5277;48.722;8.736;2024-02-23T08:42:19;2.97;;;1.27;;
10458;SDS011;5277;48.722;8.736;2024-02-23T08:44:45;2.63;;;0.80;;
10458;SDS011;5277;48.722;8.736;2024-02-23T08:47:10;8.90;;;1.00;;
10458;SDS011;5277;48.722;8.736;2024-02-23T08:49:36;4.33;;;0.97;;
10458;SDS011;5277;48.722;8.736;2024-02-23T08:52:02;2.30;;;0.83;;
10458;SDS011;5277;48.722;8.736;2024-02-23T08:54:29;2.87;;;1.00;;
10458;SDS011;5277;48.722;8.736;2024-02-23T08:56:54;4.80;;;0.95;;
10458;SDS011;5277;48.722;8.736;2024-02-23T08:59:20;4.38;;;0.85;;
10458;SDS011;5277;48.722;8.736;2024-02-23T09:01:46;4.13;;;1.13;;
10458;SDS011;5277;48.722;8.736;2024-02-23T09:04:12;2.15;;;1.20;;
10458;SDS011;5277;48.722;8.736;2024-02-23T09:06:38;3.35;;;1.17;;
10458;SDS011;5277;48.722;8.736;2024-02-23T09:09:03;2.67;;;1.10;;
10458;SDS011;5277;48.722;8.736;2024-02-23T09:11:29;2.65;;;0.77;;
10458;SDS011;5277;48.722;8.736;2024-02-23T09:13:55;3.85;;;0.98;;
10458;SDS011;5277;48.722;8.736;2024-02-23T09:16:20;3.05;;;0.68;;
10458;SDS011;5277;48.722;8.736;2024-02-23T09:18:49;5.55;;;1.20;;
10458;SDS011;5277;48.722;8.736;2024-02-23T09:21:15;1.92;;;0.70;;
10458;SDS011;5277;48.722;8.736;2024-02-23T09:23:41;5.70;;;0.93;;
10458;SDS011;5277;48.722;8.736;2024-02-23T09:26:09;3.17;;;0.93;;
10458;SDS011;5277;48.722;8.736;2024-02-23T09:28:38;2.08;;;0.82;;
10458;SDS011;5277;48.722;8.736;2024-02-23T09:31:06;2.40;;;0.60;;
10458;SDS011;5277;48.722;8.736;2024-02-23T09:33:32;2.03;;;0.68;;
10458;SDS011;5277;48.722;8.736;2024-02-23T09:35:58;2.38;;;0.88;;
10458;SDS011;5277;48.722;8.736;2024-02-23T09:38:24;3.72;;;0.98;;
10458;SDS011;5277;48.722;8.736;2024-02-23T09:40:53;1.63;;;0.82;;
10458;SDS011;5277;48.722;8.736;2024-02-23T09:43:20;2.13;;;0.80;;
10458;SDS011;5277;48.722;8.736;2024-02-23T09:45:47;2.60;;;0.80;;
10458;SDS011;5277;48.722;8.736;2024-02-23T09:48:16;2.60;;;0.95;;
10458;SDS011;5277;48.722;8.736;2024-02-23T09:50:43;3.22;;;1.10;;
10458;SDS011;5277;48.722;8.736;2024-02-23T09:53:11;4.82;;;0.80;;
10458;SDS011;5277;48.722;8.736;2024-02-23T09:55:38;3.45;;;1.08;;
10458;SDS011;5277;48.722;8.736;2024-02-23T09:58:03;2.65;;;0.80;;
10458;SDS011;5277;48.722;8.736;2024-02-23T10:00:31;6.22;;;0.82;;
10458;SDS011;5277;48.722;8.736;2024-02-23T10:02:59;3.83;;;0.90;;
10458;SDS011;5277;48.722;8.736;2024-02-23T10:05:29;4.32;;;1.00;;
10458;SDS011;5277;48.722;8.736;2024-02-23T10:07:58;2.35;;;0.63;;
10458;SDS011;5277;48.722;8.736;2024-02-23T10:10:25;2.95;;;0.60;;
10458;SDS011;5277;48.722;8.736;2024-02-23T10:12:58;4.57;;;0.90;;
10458;SDS011;5277;48.722;8.736;2024-02-23T10:15:24;5.25;;;0.90;;
10458;SDS011;5277;48.722;8.736;2024-02-23T10:17:51;3.13;;;0.77;;
10458;SDS011;5277;48.722;8.736;2024-02-23T10:20:16;3.08;;;1.10;;
10458;SDS011;5277;48.722;8.736;2024-02-23T10:22:42;3.60;;;0.85;;
10458;SDS011;5277;48.722;8.736;2024-02-23T10:25:10;4.50;;;0.90;;
10458;SDS011;5277;48.722;8.736;2024-02-23T10:27:35;3.03;;;0.90;;
10458;SDS011;5277;48.722;8.736;2024-02-23T10:30:01;3.13;;;0.80;;
10458;SDS011;5277;48.722;8.736;2024-02-23T10:32:28;1.20;;;0.50;;
10458;SDS011;5277;48.722;8.736;2024-02-23T10:34:55;2.60;;;0.60;;
10458;SDS011;5277;48.722;8.736;2024-02-23T10:37:25;5.13;;;0.80;;
10458;SDS011;5277;48.722;8.736;2024-02-23T10:39:53;2.42;;;0.63;;
10458;SDS011;5277;48.722;8.736;2024-02-23T10:42:23;2.58;;;0.90;;
10458;SDS011;5277;48.722;8.736;2024-02-23T10:44:52;3.55;;;1.00;;
10458;SDS011;5277;48.722;8.736;2024-02-23T10:47:20;3.35;;;0.77;;
10458;SDS011;5277;48.722;8.736;2024-02-23T10:49:47;1.52;;;1.00;;
10458;SDS011;5277;48.722;8.736;2024-02-23T10:52:13;5.35;;;1.10;;
10458;SDS011;5277;48.722;8.736;2024-02-23T10:54:40;2.10;;;1.10;;
10458;SDS011;5277;48.722;8.736;2024-02-23T10:57:06;4.35;;;1.63;;
10458;SDS011;5277;48.722;8.736;2024-02-23T10:59:32;4.53;;;1.40;;
10458;SDS011;5277;48.722;8.736;2024-02-23T11:01:58;3.50;;;1.27;;
10458;SDS011;5277;48.722;8.736;2024-02-23T11:04:25;3.22;;;0.80;;
10458;SDS011;5277;48.722;8.736;2024-02-23T11:06:53;4.43;;;1.38;;
10458;SDS011;5277;48.722;8.736;2024-02-23T11:09:23;2.55;;;0.88;;
10458;SDS011;5277;48.722;8.736;2024-02-23T11:11:56;5.20;;;0.98;;
10458;SDS011;5277;48.722;8.736;2024-02-23T11:14:29;4.30;;;0.88;;
10458;SDS011;5277;48.722;8.736;2024-02-23T11:17:02;2.53;;;1.02;;
10458;SDS011;5277;48.722;8.736;2024-02-23T11:19:39;2.42;;;0.90;;
10458;SDS011;5277;48.722;8.736;2024-02-23T11:22:04;3.17;;;1.15;;
10458;SDS011;5277;48.722;8.736;2024-02-23T11:24:34;2.95;;;1.00;;
10458;SDS011;5277;48.722;8.736;2024-02-23T11:27:00;2.88;;;1.10;;
10458;SDS011;5277;48.722;8.736;2024-02-23T11:29:33;4.32;;;1.00;;
10458;SDS011;5277;48.722;8.736;2024-02-23T11:32:00;4.50;;;1.45;;
10458;SDS011;5277;48.722;8.736;2024-02-23T11:34:29;5.35;;;0.82;;
10458;SDS011;5277;48.722;8.736;2024-02-23T11:36:55;4.85;;;1.10;;
10458;SDS011;5277;48.722;8.736;2024-02-23T11:39:22;2.92;;;0.70;;
10458;SDS011;5277;48.722;8.736;2024-02-23T11:41:48;2.72;;;1.15;;
10458;SDS011;5277;48.722;8.736;2024-02-23T11:44:15;5.75;;;1.38;;
10458;SDS011;5277;48.722;8.736;2024-02-23T11:46:42;3.83;;;1.27;;
10458;SDS011;5277;48.722;8.736;2024-02-23T11:49:08;3.13;;;1.13;;
10458;SDS011;5277;48.722;8.736;2024-02-23T11:51:34;3.97;;;1.13;;
10458;SDS011;5277;48.722;8.736;2024-02-23T11:54:00;5.90;;;0.95;;
10458;SDS011;5277;48.722;8.736;2024-02-23T11:56:26;3.30;;;0.77;;
10458;SDS011;5277;48.722;8.736;2024-02-23T11:58:53;2.78;;;0.93;;
10458;SDS011;5277;48.722;8.736;2024-02-23T12:01:19;4.88;;;1.30;;
10458;SDS011;5277;48.722;8.736;2024-02-23T12:03:45;4.38;;;1.13;;
10458;SDS011;5277;48.722;8.736;2024-02-23T12:06:11;3.53;;;1.20;;
10458;SDS011;5277;48.722;8.736;2024-02-23T12:08:38;4.65;;;1.10;;
10458;SDS011;5277;48.722;8.736;2024-02-23T12:11:05;4.57;;;1.17;;
10458;SDS011;5277;48.722;8.736;2024-02-23T12:13:33;3.00;;;1.05;;
10458;SDS011;5277;48.722;8.736;2024-02-23T12:15:59;3.55;;;1.33;;
10458;SDS011;5277;48.722;8.736;2024-02-23T12:18:25;2.67;;;1.05;;
10458;SDS011;5277;48.722;8.736;2024-02-23T12:20:51;5.03;;;1.13;;
10458;SDS011;5277;48.722;8.736;2024-02-23T12:23:17;8.45;;;1.15;;
10458;SDS011;5277;48.722;8.736;2024-02-23T12:25:58;6.32;;;1.55;;
10458;SDS011;5277;48.722;8.736;2024-02-23T12:28:25;4.78;;;1.23;;
10458;SDS011;5277;48.722;8.736;2024-02-23T12:30:58;4.93;;;1.15;;
10458;SDS011;5277;48.722;8.736;2024-02-23T12:33:28;4.60;;;1.25;;
10458;SDS011;5277;48.722;8.736;2024-02-23T12:35:59;7.97;;;1.50;;
10458;SDS011;5277;48.722;8.736;2024-02-23T12:38:25;6.72;;;0.93;;
10458;SDS011;5277;48.722;8.736;2024-02-23T12:40:51;3.83;;;0.90;;
10458;SDS011;5277;48.722;8.736;2024-02-23T12:43:17;4.97;;;1.13;;
10458;SDS011;5277;48.722;8.736;2024-02-23T12:45:43;4.80;;;1.20;;
10458;SDS011;5277;48.722;8.736;2024-02-23T12:48:10;4.22;;;1.10;;
10458;SDS011;5277;48.722;8.736;2024-02-23T12:50:36;3.25;;;1.10;;
10458;SDS011;5277;48.722;8.736;2024-02-23T12:53:02;3.55;;;0.90;;
10458;SDS011;5277;48.722;8.736;2024-02-23T12:55:28;2.03;;;0.90;;
10458;SDS011;5277;48.722;8.736;2024-02-23T12:57:54;1.65;;;0.82;;
10458;SDS011;5277;48.722;8.736;2024-02-23T13:00:19;4.80;;;1.10;;
10458;SDS011;5277;48.722;8.736;2024-02-23T13:02:45;4.05;;;1.00;;
10458;SDS011;5277;48.722;8.736;2024-02-23T13:05:11;2.92;;;1.00;;
10458;SDS011;5277;48.722;8.736;2024-02-23T13:07:37;3.22;;;1.00;;
10458;SDS011;5277;48.722;8.736;2024-02-23T13:10:05;7.40;;;1.40;;
10458;SDS011;5277;48.722;8.736;2024-02-23T13:12:31;3.05;;;1.00;;
10458;SDS011;5277;48.722;8.736;2024-02-23T13:14:57;3.40;;;1.10;;
10458;SDS011;5277;48.722;8.736;2024-02-23T13:17:23;5.75;;;1.00;;
10458;SDS011;5277;48.722;8.736;2024-02-23T13:19:48;4.60;;;1.02;;
10458;SDS011;5277;48.722;8.736;2024-02-23T13:22:14;10.85;;;1.00;;
10458;SDS011;5277;48.722;8.736;2024-02-23T13:24:40;3.10;;;1.05;;
10458;SDS011;5277;48.722;8.736;2024-02-23T13:27:06;5.60;;;1.02;;
10458;SDS011;5277;48.722;8.736;2024-02-23T13:29:31;3.97;;;1.13;;
10458;SDS011;5277;48.722;8.736;2024-02-23T13:31:57;4.43;;;1.20;;
10458;SDS011;5277;48.722;8.736;2024-02-23T13:34:22;5.75;;;1.38;;
10458;SDS011;5277;48.722;8.736;2024-02-23T13:36:48;5.70;;;1.20;;
10458;SDS011;5277;48.722;8.736;2024-02-23T13:39:15;5.25;;;1.15;;
10458;SDS011;5277;48.722;8.736;2024-02-23T13:41:40;5.13;;;1.05;;
10458;SDS011;5277;48.722;8.736;2024-02-23T13:44:06;6.78;;;1.20;;
10458;SDS011;5277;48.722;8.736;2024-02-23T13:46:35;2.58;;;0.80;;
10458;SDS011;5277;48.722;8.736;2024-02-23T13:49:05;5.50;;;1.17;;
10458;SDS011;5277;48.722;8.736;2024-02-23T13:51:32;3.45;;;1.33;;
10458;SDS011;5277;48.722;8.736;2024-02-23T13:53:58;10.38;;;1.48;;
10458;SDS011;5277;48.722;8.736;2024-02-23T13:56:24;6.68;;;1.92;;
10458;SDS011;5277;48.722;8.736;2024-02-23T13:58:49;15.38;;;6.50;;
10458;SDS011;5277;48.722;8.736;2024-02-23T14:01:15;9.13;;;2.40;;
10458;SDS011;5277;48.722;8.736;2024-02-23T14:03:41;8.35;;;2.63;;
10458;SDS011;5277;48.722;8.736;2024-02-23T14:06:07;7.72;;;3.05;;
10458;SDS011;5277;48.722;8.736;2024-02-23T14:08:34;5.53;;;1.77;;
10458;SDS011;5277;48.722;8.736;2024-02-23T14:11:01;4.82;;;1.30;;
10458;SDS011;5277;48.722;8.736;2024-02-23T14:13:27;3.70;;;1.27;;
10458;SDS011;5277;48.722;8.736;2024-02-23T14:15:53;4.82;;;1.70;;
10458;SDS011;5277;48.722;8.736;2024-02-23T14:18:19;2.83;;;1.58;;
10458;SDS011;5277;48.722;8.736;2024-02-23T14:20:44;3.13;;;1.20;;
10458;SDS011;5277;48.722;8.736;2024-02-23T14:23:10;6.95;;;1.45;;
10458;SDS011;5277;48.722;8.736;2024-02-23T14:25:35;8.75;;;1.50;;
10458;SDS011;5277;48.722;8.736;2024-02-23T14:28:01;3.47;;;1.50;;
10458;SDS011;5277;48.722;8.736;2024-02-23T14:30:27;6.20;;;3.00;;
10458;SDS011;5277;48.722;8.736;2024-02-23T14:32:52;6.32;;;2.30;;
10458;SDS011;5277;48.722;8.736;2024-02-23T14:35:18;7.68;;;1.80;;
10458;SDS011;5277;48.722;8.736;2024-02-23T14:37:43;8.88;;;1.40;;
10458;SDS011;5277;48.722;8.736;2024-02-23T14:40:09;4.15;;;1.33;;
10458;SDS011;5277;48.722;8.736;2024-02-23T14:42:36;6.63;;;2.58;;
10458;SDS011;5277;48.722;8.736;2024-02-23T14:45:03;3.85;;;1.40;;
10458;SDS011;5277;48.722;8.736;2024-02-23T14:47:29;4.13;;;1.38;;
10458;SDS011;5277;48.722;8.736;2024-02-23T14:49:55;5.60;;;1.45;;
10458;SDS011;5277;48.722;8.736;2024-02-23T14:52:20;3.90;;;1.38;;
10458;SDS011;5277;48.722;8.736;2024-02-23T14:54:46;3.97;;;1.10;;